Fittstown, Oklahoma
Current Conditions -  °F | °C
As of 7:35 PM on Monday 22 Dec 2014 (Local Time) from KADH Reporting Station
Clear Clear  
Wind Chill: 46°   Ceiling: Unl
Heat Index: 46°   Visibility: 10mi
Dew Point: 41°   Wind: 3mph
Humidity: 81%   Direction: 260°W
Pressure: 29.67"   Gusts: NA
Location:  34.61°N, 96.64°W
Report Text: KADH 230135Z AUTO 26003KT 10SM CLR 08/05 A2967 RMK AO2
Loading
Personal Weather Stations






























Interactive Weather Map New forecast layout! Learn more

10-Day Weather Forecast

Advertisements
Track Severe Weather on mobile